createdAt,value
2018-05-13T00:00:04.539Z,12.47
2018-05-13T00:02:33.022Z,11.40
2018-05-13T00:05:01.497Z,12.23
2018-05-13T00:07:29.956Z,11.67
2018-05-13T00:09:58.428Z,11.57
2018-05-13T00:12:26.919Z,11.60
2018-05-13T00:14:55.389Z,12.27
2018-05-13T00:17:24.079Z,11.43
2018-05-13T00:19:52.555Z,14.10
2018-05-13T00:22:21.002Z,10.97
2018-05-13T00:24:49.515Z,12.27
2018-05-13T00:27:18.008Z,11.27
2018-05-13T00:29:46.634Z,12.90
2018-05-13T00:32:15.086Z,12.40
2018-05-13T00:34:43.536Z,13.40
2018-05-13T00:37:12.043Z,12.40
2018-05-13T00:39:40.537Z,13.00
2018-05-13T00:42:09.097Z,12.93
2018-05-13T00:44:38.352Z,13.10
2018-05-13T00:47:06.863Z,12.67
2018-05-13T00:49:35.375Z,13.63
2018-05-13T00:52:03.838Z,13.73
2018-05-13T00:54:49.856Z,11.63
2018-05-13T00:57:18.285Z,12.53
2018-05-13T00:59:46.752Z,12.93
2018-05-13T01:02:15.292Z,12.87
2018-05-13T01:04:43.738Z,11.93
2018-05-13T01:07:12.250Z,13.97
2018-05-13T01:09:40.725Z,12.70
2018-05-13T01:12:09.223Z,14.23
2018-05-13T01:14:37.795Z,13.07
2018-05-13T01:17:06.291Z,13.07
2018-05-13T01:19:34.751Z,13.13
2018-05-13T01:22:03.374Z,13.63
2018-05-13T01:24:31.797Z,13.37
2018-05-13T01:27:00.256Z,12.53
2018-05-13T01:29:29.577Z,12.93
2018-05-13T01:31:58.137Z,13.27
2018-05-13T01:34:26.639Z,14.50
2018-05-13T01:36:55.099Z,13.50
2018-05-13T01:39:23.588Z,14.00
2018-05-13T01:41:52.825Z,14.50
2018-05-13T01:44:22.156Z,12.30
2018-05-13T01:46:50.629Z,13.17
2018-05-13T01:49:19.100Z,12.93
2018-05-13T01:51:47.564Z,13.10
2018-05-13T01:54:17.708Z,13.67
2018-05-13T01:56:46.183Z,13.13
2018-05-13T01:59:14.627Z,13.77
2018-05-13T02:01:43.877Z,12.37
2018-05-13T02:04:12.421Z,13.13
2018-05-13T02:06:40.942Z,13.20
2018-05-13T02:09:24.286Z,13.23
2018-05-13T02:11:52.734Z,13.17
2018-05-13T02:14:21.228Z,12.60
2018-05-13T02:16:49.724Z,14.07
2018-05-13T02:19:19.022Z,13.07
2018-05-13T02:21:47.501Z,13.60
2018-05-13T02:24:15.998Z,12.60
2018-05-13T02:26:44.556Z,14.40
2018-05-13T02:29:12.997Z,14.10
2018-05-13T02:31:41.514Z,14.60
2018-05-13T02:34:09.989Z,14.33
2018-05-13T02:36:38.474Z,14.50
2018-05-13T02:39:07.050Z,15.00
2018-05-13T02:41:35.500Z,15.87
2018-05-13T02:44:03.967Z,13.80
2018-05-13T02:46:32.466Z,14.33
2018-05-13T02:49:00.972Z,14.90
2018-05-13T02:51:29.521Z,17.13
2018-05-13T02:53:57.995Z,15.93
2018-05-13T02:56:26.446Z,14.90
2018-05-13T02:58:54.933Z,15.90
2018-05-13T03:01:23.442Z,14.83
2018-05-13T03:03:51.947Z,16.60
2018-05-13T03:06:20.418Z,15.27
2018-05-13T03:08:49.004Z,16.30
2018-05-13T03:11:17.502Z,17.77
2018-05-13T03:13:46.013Z,16.00
2018-05-13T03:16:14.557Z,16.40
2018-05-13T03:18:43.013Z,16.37
2018-05-13T03:21:11.464Z,16.40
2018-05-13T03:23:40.023Z,16.40
2018-05-13T03:26:09.274Z,16.10
2018-05-13T03:28:37.740Z,17.60
2018-05-13T03:31:06.182Z,16.00
2018-05-13T03:33:34.625Z,16.13
2018-05-13T03:36:03.089Z,17.30
2018-05-13T03:38:31.537Z,17.30
2018-05-13T03:41:00.151Z,16.40
2018-05-13T03:43:28.697Z,17.97
2018-05-13T03:45:57.414Z,18.40
2018-05-13T03:48:25.877Z,19.20
2018-05-13T03:50:54.317Z,20.07
2018-05-13T03:53:23.665Z,19.73
2018-05-13T03:55:52.140Z,20.30
2018-05-13T03:58:20.635Z,20.63
2018-05-13T04:00:49.187Z,20.10
2018-05-13T04:03:17.706Z,20.90
2018-05-13T04:05:46.282Z,19.87
2018-05-13T04:08:50.217Z,20.33
2018-05-13T04:11:36.249Z,19.70
2018-05-13T04:14:23.148Z,19.77
2018-05-13T04:16:51.624Z,21.00
2018-05-13T04:19:20.124Z,21.30
2018-05-13T04:21:48.609Z,22.87
2018-05-13T04:24:17.100Z,22.43
2018-05-13T04:26:45.575Z,23.23
2018-05-13T04:29:14.115Z,23.13
2018-05-13T04:31:42.626Z,23.73
2018-05-13T04:34:11.100Z,23.90
2018-05-13T04:36:39.586Z,22.10
2018-05-13T04:39:08.038Z,23.03
2018-05-13T04:41:36.509Z,22.67
2018-05-13T04:44:04.999Z,24.70
2018-05-13T04:46:33.455Z,23.37
2018-05-13T04:49:02.773Z,22.93
2018-05-13T04:51:31.217Z,22.90
2018-05-13T04:53:59.704Z,23.57
2018-05-13T04:56:28.255Z,23.50
2018-05-13T04:58:57.068Z,24.63
2018-05-13T05:01:25.551Z,24.67
2018-05-13T05:03:54.173Z,25.63
2018-05-13T05:06:22.755Z,23.83
2018-05-13T05:08:51.248Z,26.60
2018-05-13T05:11:20.429Z,23.77
2018-05-13T05:13:48.907Z,21.80
2018-05-13T05:16:17.393Z,25.33
2018-05-13T05:18:45.975Z,22.63
2018-05-13T05:21:14.526Z,22.80
2018-05-13T05:23:42.985Z,25.80
2018-05-13T05:26:11.551Z,24.77
2018-05-13T05:28:39.994Z,25.13
2018-05-13T05:31:08.612Z,24.70
2018-05-13T05:33:37.124Z,24.70
2018-05-13T05:36:05.590Z,25.00
2018-05-13T05:38:34.195Z,26.03
2018-05-13T05:41:02.721Z,25.20
2018-05-13T05:43:31.266Z,25.37
2018-05-13T05:45:59.893Z,24.47
2018-05-13T05:48:28.456Z,23.93
2018-05-13T05:50:56.903Z,24.47
2018-05-13T05:53:25.336Z,24.50
2018-05-13T05:55:53.807Z,25.53
2018-05-13T05:58:22.592Z,24.30
2018-05-13T06:00:54.033Z,25.20
2018-05-13T06:03:22.779Z,25.30
2018-05-13T06:05:51.214Z,25.50
2018-05-13T06:08:20.562Z,25.70
2018-05-13T06:10:54.320Z,26.57
2018-05-13T06:13:22.786Z,24.23
2018-05-13T06:15:51.258Z,26.00
2018-05-13T06:18:20.104Z,25.17
2018-05-13T06:20:48.995Z,25.73
2018-05-13T06:23:17.950Z,26.77
2018-05-13T06:25:47.202Z,24.43
2018-05-13T06:28:15.718Z,25.80
2018-05-13T06:30:44.206Z,24.67
2018-05-13T06:33:12.700Z,24.17
2018-05-13T06:35:41.178Z,24.90
2018-05-13T06:38:09.626Z,26.47
2018-05-13T06:40:38.123Z,28.47
2018-05-13T06:43:06.552Z,25.63
2018-05-13T06:45:35.015Z,26.50
2018-05-13T06:48:03.524Z,24.10
2018-05-13T06:50:32.035Z,24.53
2018-05-13T06:53:00.469Z,24.20
2018-05-13T06:55:28.949Z,24.80
2018-05-13T06:57:57.416Z,24.10
2018-05-13T07:00:26.862Z,22.80
2018-05-13T07:02:55.560Z,21.37
2018-05-13T07:05:25.023Z,20.87
2018-05-13T07:07:53.499Z,18.60
2018-05-13T07:10:21.966Z,18.43
2018-05-13T07:12:50.455Z,19.20
2018-05-13T07:15:18.923Z,17.50
2018-05-13T07:17:47.486Z,18.90
2018-05-13T07:20:15.919Z,18.37
2018-05-13T07:22:44.367Z,18.40
2018-05-13T07:25:12.832Z,17.13
2018-05-13T07:27:41.256Z,16.50
2018-05-13T07:30:09.831Z,17.03
2018-05-13T07:32:39.126Z,16.43
2018-05-13T07:35:07.602Z,17.50
2018-05-13T07:37:36.057Z,18.60
2018-05-13T07:40:04.525Z,17.50
2018-05-13T07:42:34.030Z,16.17
2018-05-13T07:45:02.527Z,18.53
2018-05-13T07:47:31.260Z,18.10
2018-05-13T07:49:59.769Z,18.40
2018-05-13T07:52:28.759Z,18.70
2018-05-13T07:54:57.237Z,19.00
2018-05-13T07:57:25.680Z,19.80
2018-05-13T07:59:54.170Z,18.87
2018-05-13T08:02:23.415Z,20.17
2018-05-13T08:04:52.668Z,19.60
2018-05-13T08:07:21.152Z,19.17
2018-05-13T08:09:50.607Z,19.67
2018-05-13T08:12:19.098Z,21.43
2018-05-13T08:14:47.682Z,20.33
2018-05-13T08:17:16.833Z,18.90
2018-05-13T08:19:45.651Z,19.10
2018-05-13T08:22:14.339Z,19.47
2018-05-13T08:24:42.888Z,20.37
2018-05-13T08:27:11.360Z,22.83
2018-05-13T08:29:39.876Z,24.03
2018-05-13T08:32:08.487Z,26.03
2018-05-13T08:34:36.980Z,24.43
2018-05-13T08:37:05.585Z,25.90
2018-05-13T08:39:34.123Z,25.40
2018-05-13T08:42:02.768Z,29.47
2018-05-13T08:44:31.249Z,27.03
2018-05-13T08:47:04.085Z,28.43
2018-05-13T08:49:32.567Z,29.47
2018-05-13T08:52:04.487Z,31.33
2018-05-13T08:54:33.901Z,31.80
2018-05-13T08:57:02.609Z,32.50
2018-05-13T08:59:31.090Z,35.33
2018-05-13T09:01:59.569Z,34.90
2018-05-13T09:04:28.282Z,36.30
2018-05-13T09:06:56.788Z,35.60
2018-05-13T09:09:25.290Z,36.30
2018-05-13T09:11:53.749Z,34.77
2018-05-13T09:14:22.292Z,36.07
2018-05-13T09:16:50.712Z,35.77
2018-05-13T09:19:19.251Z,38.67
2018-05-13T09:21:48.251Z,39.10
2018-05-13T09:24:17.194Z,37.70
2018-05-13T09:26:45.710Z,41.37
2018-05-13T09:29:14.204Z,38.30
2018-05-13T09:31:46.731Z,36.77
2018-05-13T09:34:15.199Z,40.00
2018-05-13T09:36:43.682Z,40.47
2018-05-13T09:39:12.347Z,39.47
2018-05-13T09:41:40.892Z,42.90
2018-05-13T09:44:09.345Z,41.80
2018-05-13T09:46:37.807Z,43.00
2018-05-13T09:49:07.650Z,42.07
2018-05-13T09:51:36.111Z,43.13
2018-05-13T09:54:04.597Z,42.57
2018-05-13T09:56:33.111Z,45.20
2018-05-13T09:59:05.127Z,44.50
2018-05-13T10:01:35.733Z,45.67
2018-05-13T10:04:05.440Z,43.27
2018-05-13T10:06:33.948Z,45.40
2018-05-13T10:09:02.460Z,44.47
2018-05-13T10:11:31.252Z,44.17
2018-05-13T10:13:59.763Z,41.97
2018-05-13T10:16:28.305Z,41.80
2018-05-13T10:18:56.887Z,45.20
2018-05-13T10:21:25.377Z,44.70
2018-05-13T10:23:53.794Z,45.80
2018-05-13T10:26:22.319Z,46.33
2018-05-13T10:28:53.807Z,44.80
2018-05-13T10:31:24.295Z,45.07
2018-05-13T10:33:52.822Z,50.30
2018-05-13T10:36:21.413Z,50.93
2018-05-13T10:38:49.930Z,51.70
2018-05-13T10:41:18.425Z,55.10
2018-05-13T10:43:46.891Z,58.07
2018-05-13T10:46:15.972Z,55.50
2018-05-13T10:48:44.489Z,56.73
2018-05-13T10:51:13.018Z,62.10
2018-05-13T10:53:41.506Z,66.57
2018-05-13T10:56:09.946Z,57.77
2018-05-13T10:58:38.442Z,61.10
2018-05-13T11:01:07.036Z,62.30
2018-05-13T11:03:35.542Z,61.73
2018-05-13T11:06:04.063Z,68.07
2018-05-13T11:08:32.599Z,72.27
2018-05-13T11:11:01.093Z,74.47
2018-05-13T11:13:29.822Z,77.30
2018-05-13T11:15:58.341Z,79.37
2018-05-13T11:18:26.852Z,80.70
2018-05-13T11:20:56.722Z,91.07
2018-05-13T11:23:25.236Z,95.47
2018-05-13T11:25:55.306Z,97.17
2018-05-13T11:28:23.846Z,100.87
2018-05-13T11:30:52.465Z,105.13
2018-05-13T11:33:26.563Z,105.77
2018-05-13T11:36:04.832Z,103.20
2018-05-13T11:38:34.822Z,101.50
2018-05-13T11:41:43.121Z,102.47
2018-05-13T11:44:15.126Z,98.07
2018-05-13T11:49:49.972Z,94.37
2018-05-13T11:52:20.061Z,92.03
2018-05-13T11:57:27.660Z,84.90
2018-05-13T11:59:56.172Z,87.30
2018-05-13T12:02:24.811Z,86.13
2018-05-13T12:04:53.334Z,80.33
2018-05-13T12:07:22.089Z,84.30
2018-05-13T12:09:50.791Z,79.07
2018-05-13T12:12:19.465Z,73.30
2018-05-13T12:14:48.767Z,77.30
2018-05-13T12:17:19.591Z,80.37
2018-05-13T12:19:48.178Z,82.43
2018-05-13T12:22:16.707Z,85.50
2018-05-13T12:24:45.277Z,85.93
2018-05-13T12:30:09.626Z,84.73
2018-05-13T12:32:38.210Z,86.70
2018-05-13T12:35:06.854Z,86.50
2018-05-13T12:37:35.556Z,80.27
2018-05-13T12:40:04.201Z,81.00
2018-05-13T12:42:36.421Z,77.90
2018-05-13T12:45:05.091Z,72.17
2018-05-13T12:47:34.082Z,69.60
2018-05-13T12:50:12.966Z,73.63
2018-05-13T12:52:44.019Z,72.87
2018-05-13T12:58:31.655Z,75.63
2018-05-13T13:01:01.012Z,74.57
2018-05-13T13:03:29.848Z,77.33
2018-05-13T13:06:06.131Z,78.53
2018-05-13T13:08:34.901Z,73.73
2018-05-13T13:11:04.028Z,75.90
2018-05-13T13:13:33.638Z,72.17
2018-05-13T13:16:14.870Z,73.90
2018-05-13T13:21:52.277Z,69.47
2018-05-13T13:33:32.201Z,62.90
2018-05-13T13:36:09.004Z,58.80
2018-05-13T13:38:39.522Z,63.50
2018-05-13T13:41:08.061Z,63.03
2018-05-13T13:43:39.826Z,64.70
2018-05-13T13:46:09.469Z,63.20
2018-05-13T13:51:39.151Z,62.10
2018-05-13T13:54:09.617Z,64.87
2018-05-13T13:56:42.855Z,67.47
2018-05-13T14:02:21.639Z,66.53
2018-05-13T14:04:50.246Z,68.30
2018-05-13T14:07:28.272Z,70.60
2018-05-13T14:09:58.361Z,75.83
2018-05-13T14:12:27.052Z,72.60
2018-05-13T14:15:08.071Z,73.93
2018-05-13T14:17:36.572Z,82.03
2018-05-13T14:20:05.179Z,77.37
2018-05-13T14:22:33.736Z,77.00
2018-05-13T14:25:02.296Z,70.83
2018-05-13T14:27:30.849Z,66.23
2018-05-13T14:29:59.347Z,71.30
2018-05-13T14:32:27.918Z,71.10
2018-05-13T14:34:56.464Z,74.53
2018-05-13T14:37:25.119Z,71.80
2018-05-13T14:40:08.562Z,59.90
2018-05-13T14:42:37.131Z,59.37
2018-05-13T14:45:05.680Z,58.50
2018-05-13T14:47:34.215Z,59.50
2018-05-13T14:50:02.769Z,58.70
2018-05-13T14:52:31.322Z,60.40
2018-05-13T14:54:59.891Z,66.50
2018-05-13T14:57:28.424Z,61.47
2018-05-13T14:59:56.943Z,64.80
2018-05-13T15:02:25.479Z,66.20
2018-05-13T15:04:54.060Z,67.07
2018-05-13T15:07:32.151Z,65.73
2018-05-13T15:10:00.628Z,66.73
2018-05-13T15:12:29.129Z,66.70
2018-05-13T15:14:57.561Z,67.77
2018-05-13T15:17:26.811Z,64.27
2018-05-13T15:19:55.291Z,59.27
2018-05-13T15:22:29.347Z,59.27
2018-05-13T15:24:58.647Z,59.67
2018-05-13T15:27:30.680Z,56.30
2018-05-13T15:29:59.423Z,61.70
2018-05-13T15:32:29.051Z,63.63
2018-05-13T15:34:57.610Z,61.97
2018-05-13T15:37:26.100Z,63.53
2018-05-13T15:39:56.834Z,59.60
2018-05-13T15:42:25.370Z,62.13
2018-05-13T15:44:53.889Z,56.00
2018-05-13T15:47:22.452Z,55.90
2018-05-13T15:49:54.760Z,58.43
2018-05-13T15:52:26.487Z,60.90
2018-05-13T15:54:55.159Z,58.53
2018-05-13T15:57:23.656Z,52.13
2018-05-13T15:59:52.188Z,49.27
2018-05-13T16:02:20.701Z,48.47
2018-05-13T16:04:49.235Z,42.03
2018-05-13T16:07:18.549Z,42.20
2018-05-13T16:09:47.845Z,41.33
2018-05-13T16:12:16.406Z,38.97
2018-05-13T16:14:44.924Z,41.67
2018-05-13T16:17:13.465Z,40.13
2018-05-13T16:19:42.079Z,41.03
2018-05-13T16:22:10.536Z,40.13
2018-05-13T16:24:39.005Z,40.10
2018-05-13T16:27:07.730Z,42.27
2018-05-13T16:29:36.387Z,39.13
2018-05-13T16:32:04.949Z,41.27
2018-05-13T16:34:33.424Z,38.97
2018-05-13T16:37:02.514Z,42.47
2018-05-13T16:39:31.322Z,41.73
2018-05-13T16:42:00.512Z,41.90
2018-05-13T16:44:30.055Z,41.97
2018-05-13T16:46:58.784Z,42.47
2018-05-13T16:49:28.569Z,41.73
2018-05-13T16:51:57.795Z,44.67
2018-05-13T16:54:26.800Z,43.97
2018-05-13T16:56:56.602Z,46.50
2018-05-13T16:59:25.583Z,47.37
2018-05-13T17:01:54.489Z,46.40
2018-05-13T17:04:23.599Z,48.27
2018-05-13T17:06:52.526Z,46.57
2018-05-13T17:09:21.552Z,49.83
2018-05-13T17:11:50.496Z,51.30
2018-05-13T17:14:23.448Z,47.90
2018-05-13T17:16:52.841Z,46.70
2018-05-13T17:19:21.645Z,46.57
2018-05-13T17:21:58.603Z,49.70
2018-05-13T17:24:43.346Z,51.23
2018-05-13T17:27:13.785Z,52.30
2018-05-13T17:29:43.159Z,52.07
2018-05-13T17:32:12.637Z,50.60
2018-05-13T17:34:41.699Z,53.70
2018-05-13T17:37:11.866Z,54.83
2018-05-13T17:39:41.377Z,53.43
2018-05-13T17:42:11.498Z,54.40
2018-05-13T17:44:40.997Z,54.50
2018-05-13T17:47:23.208Z,53.70
2018-05-13T17:52:47.527Z,61.40
2018-05-13T17:58:27.472Z,62.40
2018-05-13T18:00:57.783Z,61.87
2018-05-13T18:03:30.078Z,58.80
2018-05-13T18:05:59.988Z,61.60
2018-05-13T18:08:30.212Z,61.90
2018-05-13T18:11:00.066Z,59.87
2018-05-13T18:13:30.041Z,60.47
2018-05-13T18:16:01.009Z,64.10
2018-05-13T18:18:31.761Z,61.70
2018-05-13T18:21:14.209Z,62.13
2018-05-13T18:23:44.085Z,65.97
2018-05-13T18:26:13.927Z,65.47
2018-05-13T18:28:45.051Z,67.33
2018-05-13T18:31:15.222Z,70.47
2018-05-13T18:33:45.352Z,66.83
2018-05-13T18:36:15.561Z,70.10
2018-05-13T18:38:45.553Z,66.43
2018-05-13T18:41:15.557Z,65.50
2018-05-13T18:43:45.490Z,69.13
2018-05-13T18:46:15.859Z,67.70
2018-05-13T18:48:45.798Z,73.40
2018-05-13T18:51:17.091Z,67.90
2018-05-13T18:53:48.115Z,69.27
2018-05-13T18:56:19.690Z,69.13
2018-05-13T18:58:50.672Z,71.37
2018-05-13T19:01:20.510Z,65.40
2018-05-13T19:03:50.680Z,68.53
2018-05-13T19:06:26.591Z,66.27
2018-05-13T19:08:58.551Z,67.73
2018-05-13T19:11:51.578Z,64.87
2018-05-13T19:14:25.666Z,61.90
2018-05-13T19:16:55.673Z,64.10
2018-05-13T19:19:25.908Z,60.23
2018-05-13T19:21:55.864Z,67.23
2018-05-13T19:24:25.971Z,63.10
2018-05-13T19:30:01.216Z,58.63
2018-05-13T19:32:31.236Z,59.43
2018-05-13T19:35:01.596Z,53.87
2018-05-13T19:37:31.820Z,55.87
2018-05-13T19:40:22.562Z,55.10
2018-05-13T19:42:54.518Z,55.63
2018-05-13T19:45:24.661Z,51.60
2018-05-13T19:47:54.687Z,49.07
2018-05-13T19:50:25.011Z,51.87
2018-05-13T19:52:55.551Z,52.63
2018-05-13T19:55:25.528Z,52.13
2018-05-13T19:57:56.739Z,50.80
2018-05-13T20:00:26.709Z,51.57
2018-05-13T20:02:56.395Z,50.60
2018-05-13T20:05:26.999Z,49.73
2018-05-13T20:07:57.402Z,52.70
2018-05-13T20:10:27.086Z,50.07
2018-05-13T20:12:57.366Z,50.60
2018-05-13T20:15:34.656Z,51.87
2018-05-13T20:18:03.901Z,52.73
2018-05-13T20:20:33.116Z,52.07
2018-05-13T20:23:19.707Z,51.87
2018-05-13T20:25:50.449Z,54.33
2018-05-13T20:28:19.109Z,52.23
2018-05-13T20:30:47.887Z,51.70
2018-05-13T20:33:17.422Z,52.37
2018-05-13T20:35:48.356Z,50.63
2018-05-13T20:38:18.636Z,55.07
2018-05-13T20:40:56.867Z,53.57
2018-05-13T20:43:27.363Z,54.93
2018-05-13T20:45:56.171Z,56.47
2018-05-13T20:48:52.056Z,62.40
2018-05-13T20:51:20.752Z,58.27
2018-05-13T20:53:49.235Z,57.07
2018-05-13T20:56:25.596Z,61.23
2018-05-13T20:58:54.448Z,58.57
2018-05-13T21:01:49.052Z,60.63
2018-05-13T21:04:36.667Z,57.50
2018-05-13T21:07:05.284Z,64.40
2018-05-13T21:12:45.253Z,66.03
2018-05-13T21:15:13.869Z,63.30
2018-05-13T21:20:53.183Z,61.60
2018-05-13T21:23:22.043Z,62.10
2018-05-13T21:25:54.250Z,60.77
2018-05-13T21:34:27.125Z,64.20
2018-05-13T21:37:11.954Z,66.93
2018-05-13T21:39:42.133Z,68.20
2018-05-13T21:42:12.341Z,65.57
2018-05-13T21:44:50.138Z,61.33
2018-05-13T21:47:20.244Z,66.83
2018-05-13T21:49:53.873Z,67.40
2018-05-13T21:52:25.398Z,65.80
2018-05-13T21:54:54.590Z,62.30
2018-05-13T21:57:23.179Z,68.20
2018-05-13T21:59:51.889Z,66.80
2018-05-13T22:02:20.787Z,70.37
2018-05-13T22:04:59.708Z,70.43
2018-05-13T22:07:28.243Z,66.27
2018-05-13T22:09:56.994Z,67.70
2018-05-13T22:12:25.769Z,68.80
2018-05-13T22:14:54.625Z,70.53
2018-05-13T22:17:23.220Z,67.73
2018-05-13T22:19:52.061Z,66.00
2018-05-13T22:22:21.158Z,64.40
2018-05-13T22:24:51.065Z,68.20
2018-05-13T22:27:24.246Z,66.43
2018-05-13T22:29:52.788Z,69.53
2018-05-13T22:32:21.336Z,70.30
2018-05-13T22:34:52.953Z,74.37
2018-05-13T22:37:21.644Z,62.97
2018-05-13T22:39:50.134Z,71.03
2018-05-13T22:42:20.738Z,68.07
2018-05-13T22:44:49.282Z,65.43
2018-05-13T22:47:19.164Z,68.03
2018-05-13T22:49:47.796Z,69.63
2018-05-13T22:52:18.434Z,69.33
2018-05-13T22:54:48.356Z,70.57
2018-05-13T22:57:19.975Z,65.90
2018-05-13T22:59:48.800Z,69.53
2018-05-13T23:02:18.383Z,68.30
2018-05-13T23:04:47.650Z,71.87
2018-05-13T23:07:17.252Z,71.77
2018-05-13T23:09:45.822Z,77.13
2018-05-13T23:12:14.499Z,74.17
2018-05-13T23:14:43.436Z,68.40
2018-05-13T23:17:16.581Z,73.67
2018-05-13T23:19:45.601Z,72.27
2018-05-13T23:22:32.195Z,76.60
2018-05-13T23:25:00.965Z,76.00
2018-05-13T23:27:32.408Z,72.43
2018-05-13T23:30:03.734Z,72.90
2018-05-13T23:32:33.124Z,76.97
2018-05-13T23:35:02.696Z,78.80
2018-05-13T23:37:33.408Z,78.97
2018-05-13T23:40:04.276Z,78.13
2018-05-13T23:42:33.582Z,78.97
2018-05-13T23:45:02.856Z,82.73
2018-05-13T23:47:34.354Z,84.27
2018-05-13T23:50:04.895Z,83.30
2018-05-13T23:52:33.440Z,85.10
2018-05-13T23:55:01.985Z,84.50
2018-05-13T23:57:30.539Z,83.90
2018-05-13T23:59:59.064Z,78.60
